createdAt,value
2023-02-11T00:01:12.418Z,69.80
2023-02-11T00:03:46.035Z,71.27
2023-02-11T00:06:20.289Z,68.07
2023-02-11T00:08:54.261Z,70.60
2023-02-11T00:11:31.178Z,69.87
2023-02-11T00:14:08.379Z,69.70
2023-02-11T00:16:42.570Z,70.87
2023-02-11T00:19:16.611Z,72.37
2023-02-11T00:21:50.586Z,78.43
2023-02-11T00:24:24.747Z,70.77
2023-02-11T00:26:58.342Z,70.23
2023-02-11T00:29:31.947Z,73.20
2023-02-11T00:32:06.160Z,71.97
2023-02-11T00:34:40.221Z,71.50
2023-02-11T00:37:14.081Z,69.13
2023-02-11T00:39:50.442Z,69.10
2023-02-11T00:42:24.440Z,73.30
2023-02-11T00:44:58.313Z,71.80
2023-02-11T00:47:32.505Z,71.80
2023-02-11T00:50:08.528Z,68.57
2023-02-11T00:52:42.793Z,71.50
2023-02-11T00:55:17.252Z,70.03
2023-02-11T00:57:51.939Z,71.87
2023-02-11T01:00:25.778Z,69.40
2023-02-11T01:02:59.781Z,63.47
2023-02-11T01:05:33.895Z,68.50
2023-02-11T01:08:08.712Z,72.97
2023-02-11T01:10:44.292Z,65.30
2023-02-11T01:13:17.869Z,69.33
2023-02-11T01:15:51.591Z,69.50
2023-02-11T01:18:25.542Z,70.60
2023-02-11T01:20:59.689Z,71.97
2023-02-11T01:23:33.913Z,73.37
2023-02-11T01:26:08.421Z,65.00
2023-02-11T01:28:42.327Z,75.00
2023-02-11T01:31:15.858Z,69.90
2023-02-11T01:33:49.307Z,69.40
2023-02-11T01:36:23.745Z,71.90
2023-02-11T01:38:57.366Z,71.47
2023-02-11T01:41:32.171Z,72.40
2023-02-11T01:44:27.039Z,72.63
2023-02-11T01:47:01.172Z,75.80
2023-02-11T01:49:37.913Z,77.13
2023-02-11T01:52:16.419Z,77.70
2023-02-11T01:55:11.366Z,72.83
2023-02-11T01:57:48.744Z,65.47
2023-02-11T02:00:26.880Z,69.57
2023-02-11T02:03:06.383Z,72.63
2023-02-11T02:05:46.790Z,65.70
2023-02-11T02:08:24.760Z,67.47
2023-02-11T02:11:01.075Z,69.73
2023-02-11T02:13:36.285Z,69.83
2023-02-11T02:16:14.377Z,69.20
2023-02-11T02:18:57.988Z,69.40
2023-02-11T02:22:00.864Z,67.83
2023-02-11T02:25:01.535Z,67.62
2023-02-11T02:27:46.360Z,75.43
2023-02-11T02:30:58.984Z,68.27
2023-02-11T02:33:44.359Z,73.92
2023-02-11T02:36:25.333Z,68.60
2023-02-11T02:39:03.128Z,68.00
2023-02-11T02:41:39.413Z,62.47
2023-02-11T02:44:13.353Z,61.67
2023-02-11T02:46:47.535Z,63.63
2023-02-11T02:49:21.711Z,71.83
2023-02-11T02:52:13.743Z,62.60
2023-02-11T02:55:08.850Z,66.77
2023-02-11T02:57:58.437Z,71.43
2023-02-11T03:00:38.663Z,62.57
2023-02-11T03:03:25.013Z,65.63
2023-02-11T03:06:05.179Z,66.93
2023-02-11T03:08:45.278Z,69.23
2023-02-11T03:11:21.808Z,62.90
2023-02-11T03:13:57.604Z,65.50
2023-02-11T03:16:36.495Z,68.03
2023-02-11T03:19:15.020Z,70.83
2023-02-11T03:21:51.861Z,65.33
2023-02-11T03:24:30.776Z,61.70
2023-02-11T03:27:09.650Z,67.80
2023-02-11T03:29:52.056Z,65.57
2023-02-11T03:32:30.339Z,61.77
2023-02-11T03:35:09.318Z,63.53
2023-02-11T03:37:50.259Z,67.40
2023-02-11T03:40:27.671Z,66.87
2023-02-11T03:43:05.012Z,66.60
2023-02-11T03:45:40.975Z,69.20
2023-02-11T03:48:20.572Z,68.87
2023-02-11T03:50:56.831Z,66.93
2023-02-11T03:53:30.970Z,63.73
2023-02-11T03:56:09.421Z,64.90
2023-02-11T03:58:45.620Z,62.83
2023-02-11T04:01:19.443Z,62.07
2023-02-11T04:03:53.084Z,65.97
2023-02-11T04:06:27.297Z,66.73
2023-02-11T04:09:01.094Z,66.53
2023-02-11T04:11:35.182Z,63.93
2023-02-11T04:14:09.517Z,64.20
2023-02-11T04:16:43.293Z,63.23
2023-02-11T04:19:17.124Z,70.53
2023-02-11T04:21:51.343Z,69.30
2023-02-11T04:24:25.764Z,70.10
2023-02-11T04:26:59.432Z,64.03
2023-02-11T04:29:33.537Z,67.30
2023-02-11T04:32:07.239Z,68.13
2023-02-11T04:34:41.821Z,68.33
2023-02-11T04:37:16.673Z,67.87
2023-02-11T04:39:50.834Z,72.03
2023-02-11T04:42:25.307Z,67.80
2023-02-11T04:44:59.180Z,70.30
2023-02-11T04:47:32.872Z,68.50
2023-02-11T04:50:07.175Z,68.00
2023-02-11T04:52:40.974Z,73.10
2023-02-11T04:55:15.162Z,70.27
2023-02-11T04:57:48.954Z,73.97
2023-02-11T05:00:22.813Z,66.93
2023-02-11T05:02:57.114Z,72.17
2023-02-11T05:05:31.168Z,70.17
2023-02-11T05:08:05.334Z,71.00
2023-02-11T05:10:39.604Z,73.47
2023-02-11T05:13:13.965Z,68.53
2023-02-11T05:15:46.852Z,70.07
2023-02-11T05:18:20.769Z,72.50
2023-02-11T05:20:54.358Z,72.13
2023-02-11T05:23:28.385Z,70.13
2023-02-11T05:26:02.369Z,72.50
2023-02-11T05:28:36.298Z,76.47
2023-02-11T05:31:10.566Z,70.47
2023-02-11T05:33:44.571Z,80.93
2023-02-11T05:36:19.044Z,85.15
2023-02-11T05:38:53.263Z,82.30
2023-02-11T05:41:27.237Z,84.57
2023-02-11T05:44:01.452Z,83.93
2023-02-11T05:46:35.145Z,78.67
2023-02-11T05:49:09.057Z,79.73
2023-02-11T05:51:42.955Z,82.07
2023-02-11T05:54:17.121Z,77.93
2023-02-11T05:56:51.901Z,81.57
2023-02-11T05:59:26.729Z,85.47
2023-02-11T06:02:00.822Z,89.93
2023-02-11T06:04:35.154Z,94.67
2023-02-11T06:07:09.235Z,87.90
2023-02-11T06:09:43.082Z,81.43
2023-02-11T06:12:17.387Z,83.20
2023-02-11T06:14:51.802Z,81.80
2023-02-11T06:17:26.400Z,80.07
2023-02-11T06:20:01.037Z,76.07
2023-02-11T06:22:35.078Z,77.57
2023-02-11T06:25:11.434Z,84.27
2023-02-11T06:27:44.922Z,82.80
2023-02-11T06:30:19.805Z,80.17
2023-02-11T06:32:53.660Z,89.03
2023-02-11T06:35:27.967Z,82.77
2023-02-11T06:38:01.979Z,79.17
2023-02-11T06:40:36.596Z,93.93
2023-02-11T06:43:10.713Z,88.10
2023-02-11T06:45:44.412Z,90.23
2023-02-11T06:48:17.862Z,89.30
2023-02-11T06:50:52.220Z,91.00
2023-02-11T06:53:26.025Z,91.90
2023-02-11T06:56:03.266Z,89.17
2023-02-11T06:58:37.283Z,85.40
2023-02-11T07:01:14.608Z,80.10
2023-02-11T07:03:48.895Z,86.13
2023-02-11T07:06:24.878Z,84.27
2023-02-11T07:08:59.497Z,82.50
2023-02-11T07:11:34.687Z,80.77
2023-02-11T07:14:09.887Z,87.33
2023-02-11T07:16:43.368Z,82.57
2023-02-11T07:19:17.781Z,91.20
2023-02-11T07:21:51.588Z,94.73
2023-02-11T07:24:25.395Z,87.57
2023-02-11T07:26:59.875Z,82.20
2023-02-11T07:29:33.887Z,84.80
2023-02-11T07:32:07.878Z,83.87
2023-02-11T07:34:41.893Z,89.07
2023-02-11T07:37:16.254Z,85.70
2023-02-11T07:39:50.473Z,87.10
2023-02-11T07:42:24.471Z,87.63
2023-02-11T07:44:58.177Z,92.17
2023-02-11T07:47:32.299Z,90.57
2023-02-11T07:50:07.121Z,94.50
2023-02-11T07:52:41.200Z,91.10
2023-02-11T07:55:15.543Z,89.13
2023-02-11T07:57:49.157Z,97.87
2023-02-11T08:00:23.761Z,88.47
2023-02-11T08:02:58.658Z,90.93
2023-02-11T08:05:33.214Z,87.57
2023-02-11T08:08:07.663Z,97.40
2023-02-11T08:10:41.635Z,90.23
2023-02-11T08:13:15.715Z,100.90
2023-02-11T08:15:48.925Z,94.13
2023-02-11T08:18:22.806Z,98.23
2023-02-11T08:20:57.468Z,99.77
2023-02-11T08:23:31.266Z,101.37
2023-02-11T08:26:07.171Z,95.77
2023-02-11T08:28:42.507Z,97.70
2023-02-11T08:31:19.269Z,98.63
2023-02-11T08:33:54.814Z,103.95
2023-02-11T08:36:30.233Z,100.07
2023-02-11T08:39:17.950Z,95.57
2023-02-11T08:41:54.629Z,104.40
2023-02-11T08:44:28.594Z,104.77
2023-02-11T08:47:02.535Z,90.27
2023-02-11T08:49:36.656Z,96.93
2023-02-11T08:52:10.548Z,96.83
2023-02-11T08:54:44.426Z,96.23
2023-02-11T08:57:17.539Z,90.00
2023-02-11T08:59:50.727Z,88.57
2023-02-11T09:02:23.948Z,82.77
2023-02-11T09:04:57.107Z,85.70
2023-02-11T09:07:30.297Z,82.90
2023-02-11T09:10:03.893Z,84.87
2023-02-11T09:12:36.689Z,79.33
2023-02-11T09:15:11.715Z,81.83
2023-02-11T09:17:44.486Z,85.03
2023-02-11T09:20:18.085Z,84.23
2023-02-11T09:22:51.076Z,87.13
2023-02-11T09:25:24.272Z,87.55
2023-02-11T09:27:56.867Z,94.35
2023-02-11T09:30:30.009Z,93.93
2023-02-11T09:33:03.845Z,94.45
2023-02-11T09:35:36.885Z,91.70
2023-02-11T09:38:10.210Z,84.77
2023-02-11T09:40:45.927Z,85.63
2023-02-11T09:43:21.509Z,83.83
2023-02-11T09:45:56.242Z,82.00
2023-02-11T09:48:29.670Z,76.45
2023-02-11T09:51:02.864Z,76.40
2023-02-11T09:53:38.510Z,75.73
2023-02-11T09:56:14.294Z,79.37
2023-02-11T09:58:47.614Z,79.60
2023-02-11T10:01:32.279Z,79.60
2023-02-11T10:04:06.729Z,76.00
2023-02-11T10:06:41.401Z,83.70
2023-02-11T10:09:26.987Z,78.60
2023-02-11T10:12:04.608Z,74.00
2023-02-11T10:14:51.190Z,69.70
2023-02-11T10:17:28.006Z,69.60
2023-02-11T10:20:09.646Z,67.70
2023-02-11T10:22:45.093Z,62.30
2023-02-11T10:25:22.653Z,63.90
2023-02-11T10:27:57.077Z,70.50
2023-02-11T10:30:32.477Z,66.60
2023-02-11T10:33:08.761Z,58.93
2023-02-11T10:35:44.148Z,62.25
2023-02-11T10:38:17.130Z,61.85
2023-02-11T10:40:50.575Z,62.60
2023-02-11T10:43:25.813Z,62.80
2023-02-11T10:45:58.788Z,60.00
2023-02-11T10:48:42.807Z,60.95
2023-02-11T10:51:18.889Z,65.63
2023-02-11T10:53:52.447Z,64.43
2023-02-11T10:56:28.224Z,61.40
2023-02-11T10:59:02.459Z,63.03
2023-02-11T11:01:42.886Z,60.20
2023-02-11T11:04:34.115Z,58.95
2023-02-11T11:07:15.052Z,52.05
2023-02-11T11:09:48.773Z,54.70
2023-02-11T11:12:33.331Z,51.95
2023-02-11T11:15:18.368Z,46.30
2023-02-11T11:17:51.361Z,50.25
2023-02-11T11:20:28.816Z,51.05
2023-02-11T11:23:12.518Z,49.00
2023-02-11T11:25:46.908Z,49.30
2023-02-11T11:28:24.374Z,55.05
2023-02-11T11:30:59.009Z,49.07
2023-02-11T11:33:33.728Z,42.10
2023-02-11T11:36:09.067Z,47.95
2023-02-11T11:38:46.367Z,51.13
2023-02-11T11:41:20.779Z,43.75
2023-02-11T11:44:01.414Z,44.00
2023-02-11T11:46:35.614Z,45.07
2023-02-11T11:49:15.143Z,43.90
2023-02-11T11:51:51.258Z,43.37
2023-02-11T11:54:26.596Z,45.63
2023-02-11T11:57:02.079Z,48.90
2023-02-11T11:59:35.440Z,47.70
2023-02-11T12:02:21.017Z,48.57
2023-02-11T12:05:02.072Z,50.90
2023-02-11T12:07:44.642Z,47.37
2023-02-11T12:10:31.167Z,44.55
2023-02-11T12:13:08.644Z,46.77
2023-02-11T12:15:45.768Z,45.30
2023-02-11T12:18:26.024Z,46.10
2023-02-11T12:21:04.601Z,51.73
2023-02-11T12:23:47.453Z,48.20
2023-02-11T12:26:22.082Z,44.40
2023-02-11T12:29:05.103Z,47.95
2023-02-11T12:31:44.419Z,46.50
2023-02-11T12:34:28.077Z,49.70
2023-02-11T12:37:08.027Z,47.77
2023-02-11T12:39:45.533Z,43.05
2023-02-11T12:42:43.066Z,43.90
2023-02-11T12:45:22.811Z,42.75
2023-02-11T12:48:01.239Z,42.77
2023-02-11T12:50:37.502Z,42.20
2023-02-11T12:53:18.923Z,44.10
2023-02-11T12:55:55.368Z,40.20
2023-02-11T12:58:42.914Z,41.40
2023-02-11T13:01:21.063Z,41.37
2023-02-11T13:03:56.384Z,42.40
2023-02-11T13:06:32.219Z,43.90
2023-02-11T13:09:06.839Z,43.40
2023-02-11T13:11:41.612Z,40.75
2023-02-11T13:14:16.930Z,40.50
2023-02-11T13:16:51.036Z,45.05
2023-02-11T13:19:27.897Z,41.05
2023-02-11T13:22:07.342Z,43.70
2023-02-11T13:24:45.854Z,37.65
2023-02-11T13:27:25.089Z,39.80
2023-02-11T13:30:32.781Z,38.00
2023-02-11T13:33:19.216Z,39.90
2023-02-11T13:36:12.476Z,40.35
2023-02-11T13:38:52.831Z,41.75
2023-02-11T13:41:28.220Z,40.20
2023-02-11T13:44:03.510Z,44.45
2023-02-11T13:46:55.951Z,43.60
2023-02-11T13:49:32.210Z,42.10
2023-02-11T13:52:07.511Z,38.85
2023-02-11T13:54:40.703Z,39.65
2023-02-11T13:57:27.591Z,45.30
2023-02-11T14:00:01.357Z,40.95
2023-02-11T14:02:53.382Z,40.55
2023-02-11T14:05:46.444Z,41.10
2023-02-11T14:08:41.553Z,42.60
2023-02-11T14:11:32.386Z,40.40
2023-02-11T14:14:15.534Z,42.65
2023-02-11T14:17:05.252Z,45.23
2023-02-11T14:19:38.745Z,45.75
2023-02-11T14:22:16.648Z,48.30
2023-02-11T14:24:51.105Z,46.13
2023-02-11T14:27:26.818Z,48.15
2023-02-11T14:30:08.047Z,46.45
2023-02-11T14:32:48.451Z,47.47
2023-02-11T14:35:25.117Z,47.65
2023-02-11T14:38:02.474Z,48.00
2023-02-11T14:40:36.503Z,44.65
2023-02-11T14:43:14.171Z,53.20
2023-02-11T14:45:51.375Z,47.25
2023-02-11T14:48:29.090Z,46.10
2023-02-11T14:51:03.540Z,50.17
2023-02-11T14:53:36.566Z,47.00
2023-02-11T14:56:18.084Z,44.25
2023-02-11T14:58:52.078Z,44.95
2023-02-11T15:01:28.739Z,41.05
2023-02-11T15:04:03.179Z,43.75
2023-02-11T15:06:38.267Z,44.75
2023-02-11T15:09:16.525Z,45.95
2023-02-11T15:11:50.743Z,43.40
2023-02-11T15:14:25.629Z,48.20
2023-02-11T15:16:59.164Z,42.50
2023-02-11T15:19:34.697Z,46.43
2023-02-11T15:22:10.867Z,46.10
2023-02-11T15:24:43.852Z,47.25
2023-02-11T15:27:18.667Z,45.65
2023-02-11T15:29:52.278Z,51.57
2023-02-11T15:32:26.162Z,48.23
2023-02-11T15:34:59.272Z,46.33
2023-02-11T15:37:32.491Z,45.87
2023-02-11T15:40:16.689Z,44.70
2023-02-11T15:42:58.438Z,44.95
2023-02-11T15:45:32.916Z,44.30
2023-02-11T15:48:10.850Z,53.65
2023-02-11T15:50:44.695Z,45.77
2023-02-11T15:53:22.438Z,45.47
2023-02-11T15:55:56.812Z,49.35
2023-02-11T15:58:29.936Z,47.60
2023-02-11T16:01:03.115Z,56.35
2023-02-11T16:03:36.917Z,60.30
2023-02-11T16:06:21.026Z,61.87
2023-02-11T16:09:04.604Z,63.65
2023-02-11T16:11:38.810Z,63.53
2023-02-11T16:14:23.064Z,64.30
2023-02-11T16:16:57.066Z,60.20
2023-02-11T16:19:30.255Z,64.20
2023-02-11T16:22:04.809Z,63.15
2023-02-11T16:24:38.754Z,62.80
2023-02-11T16:27:20.191Z,64.30
2023-02-11T16:29:53.867Z,65.60
2023-02-11T16:32:27.535Z,62.40
2023-02-11T16:35:01.934Z,63.73
2023-02-11T16:37:35.707Z,65.95
2023-02-11T16:40:12.047Z,65.60
2023-02-11T16:42:45.350Z,66.00
2023-02-11T16:45:18.536Z,70.90
2023-02-11T16:47:51.731Z,85.80
2023-02-11T16:50:25.917Z,74.55
2023-02-11T16:53:01.171Z,65.90
2023-02-11T16:55:34.935Z,67.25
2023-02-11T16:58:08.582Z,62.75
2023-02-11T17:00:41.852Z,55.87
2023-02-11T17:03:17.528Z,58.95
2023-02-11T17:05:55.679Z,53.20
2023-02-11T17:08:28.383Z,57.15
2023-02-11T17:11:02.713Z,58.90
2023-02-11T17:13:36.743Z,60.57
2023-02-11T17:16:12.906Z,68.00
2023-02-11T17:18:47.242Z,61.30
2023-02-11T17:21:20.392Z,59.63
2023-02-11T17:23:53.786Z,56.70
2023-02-11T17:26:26.790Z,58.65
2023-02-11T17:28:59.550Z,55.93
2023-02-11T17:31:32.264Z,58.55
2023-02-11T17:34:05.517Z,56.10
2023-02-11T17:36:38.704Z,54.65
2023-02-11T17:39:11.931Z,64.75
2023-02-11T17:41:44.877Z,61.15
2023-02-11T17:44:18.275Z,63.50
2023-02-11T17:46:51.136Z,60.70
2023-02-11T17:49:23.839Z,57.55
2023-02-11T17:51:57.022Z,61.40
2023-02-11T17:54:30.219Z,58.43
2023-02-11T17:57:03.408Z,65.95
2023-02-11T17:59:37.407Z,65.90
2023-02-11T18:02:12.075Z,65.50
2023-02-11T18:04:45.506Z,67.60
2023-02-11T18:07:20.058Z,65.20
2023-02-11T18:09:53.418Z,66.70
2023-02-11T18:12:26.842Z,68.95
2023-02-11T18:14:59.617Z,65.93
2023-02-11T18:17:33.012Z,65.50
2023-02-11T18:20:06.814Z,64.95
2023-02-11T18:22:41.442Z,63.85
2023-02-11T18:25:16.008Z,62.30
2023-02-11T18:27:49.051Z,70.20
2023-02-11T18:30:22.648Z,73.85
2023-02-11T18:32:57.135Z,74.30
2023-02-11T18:35:30.256Z,75.90
2023-02-11T18:38:03.458Z,77.65
2023-02-11T18:40:36.842Z,76.25
2023-02-11T18:43:09.828Z,78.25
2023-02-11T18:45:45.792Z,76.87
2023-02-11T18:48:18.956Z,78.60
2023-02-11T18:50:51.648Z,76.40
2023-02-11T18:53:25.258Z,74.20
2023-02-11T18:55:58.028Z,73.83
2023-02-11T18:58:31.428Z,76.15
2023-02-11T19:01:10.783Z,80.53
2023-02-11T19:03:43.740Z,81.45
2023-02-11T19:06:17.802Z,76.57
2023-02-11T19:08:50.735Z,76.17
2023-02-11T19:11:44.206Z,75.10
2023-02-11T19:14:18.089Z,81.40
2023-02-11T19:16:51.826Z,80.45
2023-02-11T19:19:25.605Z,73.15
2023-02-11T19:21:59.219Z,78.80
2023-02-11T19:24:32.395Z,79.33
2023-02-11T19:27:05.380Z,80.60
2023-02-11T19:29:38.781Z,74.63
2023-02-11T19:32:12.177Z,73.83
2023-02-11T19:34:45.566Z,73.10
2023-02-11T19:37:18.823Z,69.17
2023-02-11T19:39:51.942Z,70.90
2023-02-11T19:42:27.555Z,68.75
2023-02-11T19:45:00.784Z,66.33
2023-02-11T19:47:33.557Z,69.90
2023-02-11T19:50:07.635Z,74.03
2023-02-11T19:52:40.723Z,78.95
2023-02-11T19:55:13.544Z,80.05
2023-02-11T19:57:46.816Z,73.47
2023-02-11T20:00:21.851Z,79.67
2023-02-11T20:02:54.841Z,71.15
2023-02-11T20:05:27.733Z,73.75
2023-02-11T20:08:01.123Z,72.83
2023-02-11T20:10:34.309Z,82.07
2023-02-11T20:13:07.497Z,83.37
2023-02-11T20:15:41.173Z,86.80
2023-02-11T20:18:14.694Z,85.80
2023-02-11T20:20:47.883Z,76.43
2023-02-11T20:23:21.080Z,75.03
2023-02-11T20:25:54.425Z,77.10
2023-02-11T20:28:27.687Z,77.83
2023-02-11T20:31:04.253Z,81.05
2023-02-11T20:33:36.904Z,77.60
2023-02-11T20:38:42.059Z,81.43
2023-02-11T20:41:15.975Z,92.95
2023-02-11T20:43:49.866Z,95.53
2023-02-11T20:46:23.926Z,89.95
2023-02-11T20:48:57.910Z,89.90
2023-02-11T20:51:32.762Z,72.10
2023-02-11T20:54:06.928Z,72.60
2023-02-11T20:56:40.323Z,73.40
2023-02-11T20:59:14.419Z,73.20
2023-02-11T21:01:47.960Z,74.60
2023-02-11T21:04:21.793Z,74.03
2023-02-11T21:06:55.531Z,73.33
2023-02-11T21:09:29.148Z,73.40
2023-02-11T21:12:02.562Z,77.50
2023-02-11T21:14:35.717Z,75.23
2023-02-11T21:17:08.906Z,73.43
2023-02-11T21:19:42.095Z,74.70
2023-02-11T21:22:15.084Z,81.35
2023-02-11T21:24:48.272Z,71.67
2023-02-11T21:27:21.469Z,78.63
2023-02-11T21:29:54.922Z,79.90
2023-02-11T21:32:27.638Z,81.00
2023-02-11T21:35:02.371Z,76.30
2023-02-11T21:37:35.862Z,74.37
2023-02-11T21:40:11.566Z,76.53
2023-02-11T21:42:44.696Z,76.20
2023-02-11T21:45:17.885Z,80.83
2023-02-11T21:47:51.079Z,81.35
2023-02-11T21:50:24.082Z,77.37
2023-02-11T21:52:57.456Z,91.95
2023-02-11T21:55:30.648Z,94.00
2023-02-11T21:58:03.833Z,89.50
2023-02-11T22:00:37.057Z,89.70
2023-02-11T22:03:10.217Z,84.23
2023-02-11T22:05:43.811Z,89.43
2023-02-11T22:08:18.563Z,86.00
2023-02-11T22:10:53.058Z,94.50
2023-02-11T22:13:26.249Z,106.77
2023-02-11T22:16:03.157Z,92.20
2023-02-11T22:18:36.926Z,100.90
2023-02-11T22:21:11.552Z,96.90
2023-02-11T22:23:44.743Z,93.00
2023-02-11T22:26:18.754Z,89.20
2023-02-11T22:28:52.350Z,85.70
2023-02-11T22:31:26.009Z,77.60
2023-02-11T22:33:59.342Z,79.70
2023-02-11T22:36:32.934Z,78.93
2023-02-11T22:39:06.737Z,79.67
2023-02-11T22:41:39.925Z,80.75
2023-02-11T22:44:12.725Z,76.37
2023-02-11T22:46:45.337Z,82.20
2023-02-11T22:51:49.055Z,78.75
2023-02-11T22:54:22.189Z,76.15
2023-02-11T22:56:55.391Z,80.90
2023-02-11T22:59:28.565Z,79.17
2023-02-11T23:02:00.758Z,76.45
2023-02-11T23:04:34.129Z,76.02
2023-02-11T23:07:07.316Z,75.27
2023-02-11T23:09:40.501Z,79.33
2023-02-11T23:12:13.485Z,80.55
2023-02-11T23:14:46.854Z,80.10
2023-02-11T23:17:19.724Z,77.50
2023-02-11T23:19:53.466Z,79.40
2023-02-11T23:22:27.268Z,77.10
2023-02-11T23:25:00.664Z,82.85
2023-02-11T23:27:33.646Z,80.25
2023-02-11T23:30:07.653Z,78.25
2023-02-11T23:32:41.140Z,80.70
2023-02-11T23:35:22.224Z,75.03
2023-02-11T23:37:55.416Z,77.25
2023-02-11T23:40:28.606Z,80.25
2023-02-11T23:43:01.797Z,78.70
2023-02-11T23:45:34.823Z,78.63
2023-02-11T23:48:08.179Z,79.75
2023-02-11T23:50:44.444Z,84.10
2023-02-11T23:53:17.223Z,80.15
2023-02-11T23:55:50.412Z,82.35
2023-02-11T23:58:23.604Z,81.25
